Hanceville, Alabama
Current Conditions -  °F | °C
As of 8:15 PM on Monday 22 Dec 2014 (Local Time) from KCMD Reporting Station
Overcast Overcast  
Wind Chill: 46°   Ceiling: 400
Heat Index: 49°   Visibility: 7mi
Dew Point: 48°   Wind: 7mph
Humidity: 97%   Direction: 130°SE
Pressure: 29.8"   Gusts: NA
Location:  34.06°N, 86.77°W
Report Text: KCMD 230215Z AUTO 13006KT 7SM OVC004 10/09 A2980 RMK AO2 P0001 T00950091
Loading
Personal Weather Stations






























Interactive Weather Map New forecast layout! Learn more

10-Day Weather Forecast

Advertisements
Track Severe Weather on mobile